createdAt,value
2022-09-02T00:00:12.819Z,98692.06
2022-09-02T00:02:47.107Z,98697.19
2022-09-02T00:05:14.185Z,98692.66
2022-09-02T00:07:47.010Z,98691.44
2022-09-02T00:10:13.798Z,98694.75
2022-09-02T00:12:47.025Z,98698.66
2022-09-02T00:15:13.729Z,98688.97
2022-09-02T00:17:46.996Z,98690.16
2022-09-02T00:20:14.098Z,98687.47
2022-09-02T00:22:48.023Z,98682.06
2022-09-02T00:25:20.992Z,98675.22
2022-09-02T00:27:47.915Z,98665.72
2022-09-02T00:30:27.998Z,98674.34
2022-09-02T00:32:54.638Z,98673.25
2022-09-02T00:35:28.008Z,98669.53
2022-09-02T00:38:00.991Z,98664.75
2022-09-02T00:40:29.090Z,98681.59
2022-09-02T00:43:03.008Z,98666.31
2022-09-02T00:45:36.072Z,98665.69
2022-09-02T00:48:02.956Z,98676.78
2022-09-02T00:50:34.200Z,98662.88
2022-09-02T00:53:14.053Z,98658.34
2022-09-02T00:55:45.035Z,98658.94
2022-09-02T00:58:31.991Z,98660.13
2022-09-02T01:01:00.330Z,98659.88
2022-09-02T01:03:36.992Z,98664.69
2022-09-02T01:06:03.694Z,98662.66
2022-09-02T01:08:40.991Z,98662.66
2022-09-02T01:11:11.194Z,98668.38
2022-09-02T01:13:48.985Z,98666.75
2022-09-02T01:16:39.641Z,98664.53
2022-09-02T01:19:20.980Z,98664.59
2022-09-02T01:21:50.246Z,98669.97
2022-09-02T01:24:26.003Z,98667.56
2022-09-02T01:27:01.000Z,98666.84
2022-09-02T01:29:41.101Z,98664.16
2022-09-02T01:32:16.817Z,98663.59
2022-09-02T01:34:49.999Z,98661.50
2022-09-02T01:37:17.351Z,98662.13
2022-09-02T01:39:51.961Z,98657.97
2022-09-02T01:42:19.924Z,98663.31
2022-09-02T01:44:52.977Z,98655.22
2022-09-02T01:47:22.751Z,98658.53
2022-09-02T01:49:56.968Z,98665.63
2022-09-02T01:52:31.958Z,98658.25
2022-09-02T01:55:05.988Z,98660.66
2022-09-02T01:57:32.838Z,98662.31
2022-09-02T02:00:01.356Z,98658.63
2022-09-02T02:02:34.989Z,98660.19
2022-09-02T02:05:01.987Z,98654.38
2022-09-02T02:07:35.011Z,98661.00
2022-09-02T02:10:02.375Z,98659.38
2022-09-02T02:12:29.149Z,98649.84
2022-09-02T02:15:01.990Z,98645.50
2022-09-02T02:17:35.962Z,98645.31
2022-09-02T02:20:03.841Z,98646.78
2022-09-02T02:22:37.981Z,98641.59
2022-09-02T02:25:06.570Z,98643.47
2022-09-02T02:27:39.981Z,98642.44
2022-09-02T02:30:24.960Z,98637.28
2022-09-02T02:32:58.143Z,98641.78
2022-09-02T02:35:30.983Z,98642.53
2022-09-02T02:37:57.972Z,98638.00
2022-09-02T02:40:36.089Z,98640.38
2022-09-02T02:43:03.814Z,98640.91
2022-09-02T02:45:36.978Z,98642.28
2022-09-02T02:48:03.996Z,98635.28
2022-09-02T02:50:36.976Z,98635.94
2022-09-02T02:53:03.914Z,98627.91
2022-09-02T02:55:36.957Z,98625.06
2022-09-02T02:58:03.647Z,98621.91
2022-09-02T03:00:38.975Z,98622.44
2022-09-02T03:03:09.011Z,98622.81
2022-09-02T03:05:43.980Z,98620.78
2022-09-02T03:08:10.798Z,98619.13
2022-09-02T03:10:44.977Z,98618.81
2022-09-02T03:13:12.083Z,98617.81
2022-09-02T03:15:46.022Z,98617.81
2022-09-02T03:18:12.835Z,98612.94
2022-09-02T03:20:40.403Z,98613.13
2022-09-02T03:23:13.986Z,98620.03
2022-09-02T03:25:49.961Z,98618.56
2022-09-02T03:28:23.979Z,98619.94
2022-09-02T03:31:04.177Z,98617.13
2022-09-02T03:33:37.974Z,98621.66
2022-09-02T03:36:10.964Z,98622.84
2022-09-02T03:38:37.641Z,98623.31
2022-09-02T03:41:10.961Z,98621.66
2022-09-02T03:43:37.855Z,98626.63
2022-09-02T03:46:12.020Z,98620.44
2022-09-02T03:48:44.977Z,98618.81
2022-09-02T03:51:12.508Z,98617.50
2022-09-02T03:53:45.967Z,98617.03
2022-09-02T03:56:15.545Z,98610.84
2022-09-02T03:58:50.997Z,98610.19
2022-09-02T04:01:23.743Z,98620.22
2022-09-02T04:03:56.974Z,98614.22
2022-09-02T04:06:26.221Z,98620.78
2022-09-02T04:09:05.968Z,98613.88
2022-09-02T04:11:32.922Z,98613.22
2022-09-02T04:14:05.959Z,98617.56
2022-09-02T04:16:39.968Z,98614.22
2022-09-02T04:19:08.648Z,98613.22
2022-09-02T04:21:38.271Z,98614.59
2022-09-02T04:24:15.977Z,98618.94
2022-09-02T04:26:48.972Z,98620.47
2022-09-02T04:29:35.968Z,98618.63
2022-09-02T04:32:09.958Z,98626.00
2022-09-02T04:34:36.626Z,98630.50
2022-09-02T04:37:09.954Z,98624.88
2022-09-02T04:39:42.962Z,98628.38
2022-09-02T04:42:09.663Z,98621.19
2022-09-02T04:44:42.938Z,98629.72
2022-09-02T04:47:09.596Z,98626.78
2022-09-02T04:49:36.459Z,98621.25
2022-09-02T04:52:09.957Z,98624.28
2022-09-02T04:54:43.935Z,98614.41
2022-09-02T04:57:16.959Z,98616.44
2022-09-02T04:59:43.795Z,98624.16
2022-09-02T05:02:19.010Z,98619.16
2022-09-02T05:04:46.301Z,98618.69
2022-09-02T05:07:19.936Z,98620.81
2022-09-02T05:09:46.639Z,98629.31
2022-09-02T05:12:24.938Z,98631.66
2022-09-02T05:14:51.769Z,98635.97
2022-09-02T05:17:25.932Z,98630.28
2022-09-02T05:19:53.278Z,98628.91
2022-09-02T05:22:26.939Z,98630.75
2022-09-02T05:24:53.994Z,98624.59
2022-09-02T05:27:26.958Z,98624.75
2022-09-02T05:30:05.933Z,98621.13
2022-09-02T05:32:45.931Z,98620.47
2022-09-02T05:35:25.949Z,98618.50
2022-09-02T05:37:53.828Z,98611.81
2022-09-02T05:40:29.943Z,98616.50
2022-09-02T05:42:56.576Z,98620.38
2022-09-02T05:45:30.935Z,98616.75
2022-09-02T05:47:57.647Z,98615.59
2022-09-02T05:50:31.925Z,98609.44
2022-09-02T05:52:58.686Z,98610.97
2022-09-02T05:55:31.953Z,98616.91
2022-09-02T05:57:59.333Z,98617.88
2022-09-02T06:00:32.930Z,98618.56
2022-09-02T06:02:59.748Z,98623.53
2022-09-02T06:05:33.936Z,98615.69
2022-09-02T06:08:06.922Z,98623.06
2022-09-02T06:10:40.919Z,98616.75
2022-09-02T06:13:08.148Z,98631.75
2022-09-02T06:15:40.964Z,98620.47
2022-09-02T06:18:07.683Z,98612.94
2022-09-02T06:20:41.934Z,98616.91
2022-09-02T06:23:08.839Z,98612.75
2022-09-02T06:25:46.921Z,98614.88
2022-09-02T06:28:15.105Z,98620.28
2022-09-02T06:30:54.962Z,98618.59
2022-09-02T06:33:21.814Z,98611.38
2022-09-02T06:35:50.059Z,98621.66
2022-09-02T06:38:23.902Z,98618.81
2022-09-02T06:40:59.922Z,98620.75
2022-09-02T06:43:41.292Z,98619.38
2022-09-02T06:46:19.524Z,98618.47
2022-09-02T06:48:52.925Z,98624.00
2022-09-02T06:51:32.038Z,98615.22
2022-09-02T06:54:06.939Z,98619.16
2022-09-02T06:56:34.701Z,98614.63
2022-09-02T06:59:08.924Z,98614.63
2022-09-02T07:01:37.002Z,98616.75
2022-09-02T07:04:29.946Z,98612.56
2022-09-02T07:06:57.838Z,98614.97
2022-09-02T07:09:39.938Z,98617.91
2022-09-02T07:12:06.815Z,98614.50
2022-09-02T07:14:45.916Z,98613.94
2022-09-02T07:17:23.906Z,98617.72
2022-09-02T07:19:51.200Z,98620.69
2022-09-02T07:22:24.923Z,98606.72
2022-09-02T07:24:51.746Z,98615.16
2022-09-02T07:27:20.330Z,98614.50
2022-09-02T07:29:55.905Z,98617.09
2022-09-02T07:32:29.028Z,98615.13
2022-09-02T07:35:01.964Z,98616.44
2022-09-02T07:37:28.608Z,98619.19
2022-09-02T07:40:01.912Z,98612.34
2022-09-02T07:42:34.961Z,98606.59
2022-09-02T07:45:07.916Z,98605.19
2022-09-02T07:47:34.670Z,98603.16
2022-09-02T07:50:20.767Z,98599.13
2022-09-02T07:52:50.532Z,98602.47
2022-09-02T07:55:23.906Z,98603.63
2022-09-02T07:57:51.208Z,98603.06
2022-09-02T08:00:26.883Z,98591.44
2022-09-02T08:03:00.996Z,98590.31
2022-09-02T08:05:35.922Z,98597.88
2022-09-02T08:08:04.189Z,98595.81
2022-09-02T08:10:42.895Z,98589.88
2022-09-02T08:13:16.900Z,98591.00
2022-09-02T08:15:44.723Z,98592.91
2022-09-02T08:18:21.277Z,98593.81
2022-09-02T08:20:49.078Z,98586.03
2022-09-02T08:23:36.052Z,98585.91
2022-09-02T08:26:11.896Z,98586.97
2022-09-02T08:28:45.890Z,98577.53
2022-09-02T08:31:32.957Z,98579.63
2022-09-02T08:34:00.376Z,98585.50
2022-09-02T08:36:34.905Z,98579.78
2022-09-02T08:39:09.896Z,98580.47
2022-09-02T08:41:48.774Z,98577.63
2022-09-02T08:44:27.906Z,98574.97
2022-09-02T08:46:59.388Z,98571.72
2022-09-02T08:49:39.885Z,98573.81
2022-09-02T08:52:06.877Z,98569.31
2022-09-02T08:55:06.907Z,98573.53
2022-09-02T08:57:33.691Z,98570.66
2022-09-02T09:00:08.878Z,98569.84
2022-09-02T09:03:02.909Z,98562.03
2022-09-02T09:06:06.925Z,98567.22
2022-09-02T09:08:53.519Z,98556.31
2022-09-02T09:11:58.926Z,98552.22
2022-09-02T09:15:08.967Z,98545.22
2022-09-02T09:18:11.937Z,98533.66
2022-09-02T09:20:59.404Z,98543.19
2022-09-02T09:23:53.919Z,98538.25
2022-09-02T09:26:48.891Z,98535.34
2022-09-02T09:29:55.925Z,98526.09
2022-09-02T09:32:56.892Z,98522.59
2022-09-02T09:35:49.990Z,98527.34
2022-09-02T09:38:44.886Z,98526.94
2022-09-02T09:41:32.209Z,98521.75
2022-09-02T09:44:47.939Z,98519.06
2022-09-02T09:47:41.883Z,98514.50
2022-09-02T09:50:29.126Z,98516.97
2022-09-02T09:53:38.892Z,98512.59
2022-09-02T09:56:29.296Z,98506.16
2022-09-02T09:59:56.893Z,98504.91
2022-09-02T10:03:02.926Z,98505.50
2022-09-02T10:05:55.264Z,98503.41
2022-09-02T10:08:59.162Z,98495.28
2022-09-02T10:11:56.615Z,98495.88
2022-09-02T10:14:55.909Z,98486.72
2022-09-02T10:17:58.365Z,98483.34
2022-09-02T10:21:15.052Z,98487.66
2022-09-02T10:24:21.265Z,98485.75
2022-09-02T10:27:21.899Z,98486.25
2022-09-02T10:30:31.886Z,98487.59
2022-09-02T10:33:40.905Z,98482.94
2022-09-02T10:36:44.925Z,98475.81
2022-09-02T10:39:57.483Z,98474.72
2022-09-02T10:42:50.886Z,98469.72
2022-09-02T10:45:40.876Z,98464.22
2022-09-02T10:48:53.893Z,98474.13
2022-09-02T10:52:24.863Z,98468.84
2022-09-02T10:55:26.994Z,98465.84
2022-09-02T10:58:50.926Z,98461.91
2022-09-02T11:02:02.873Z,98465.22
2022-09-02T11:05:22.870Z,98460.97
2022-09-02T11:08:28.328Z,98455.56
2022-09-02T11:11:07.190Z,98456.16
2022-09-02T11:13:58.942Z,98456.13
2022-09-02T11:17:01.972Z,98450.34
2022-09-02T11:19:55.885Z,98448.84
2022-09-02T11:22:40.179Z,98439.53
2022-09-02T11:25:34.865Z,98447.75
2022-09-02T11:28:21.364Z,98437.13
2022-09-02T11:31:18.852Z,98442.59
2022-09-02T11:33:58.939Z,98439.72
2022-09-02T11:36:26.396Z,98434.09
2022-09-02T11:39:36.613Z,98433.41
2022-09-02T11:43:10.864Z,98429.28
2022-09-02T11:45:51.929Z,98424.16
2022-09-02T11:48:41.174Z,98415.81
2022-09-02T11:51:48.854Z,98416.16
2022-09-02T11:54:19.473Z,98423.59
2022-09-02T11:56:57.851Z,98420.75
2022-09-02T11:59:59.889Z,98412.75
2022-09-02T12:02:38.892Z,98415.81
2022-09-02T12:05:31.058Z,98410.38
2022-09-02T12:08:05.862Z,98409.59
2022-09-02T12:10:51.892Z,98401.31
2022-09-02T12:13:41.175Z,98401.03
2022-09-02T12:16:27.915Z,98400.63
2022-09-02T12:19:00.889Z,98396.97
2022-09-02T12:21:36.871Z,98392.19
2022-09-02T12:24:17.847Z,98395.34
2022-09-02T12:26:50.852Z,98389.28
2022-09-02T12:29:18.398Z,98381.31
2022-09-02T12:32:00.005Z,98382.16
2022-09-02T12:34:28.713Z,98385.22
2022-09-02T12:37:03.861Z,98376.31
2022-09-02T12:39:41.862Z,98376.56
2022-09-02T12:42:17.874Z,98377.44
2022-09-02T12:45:30.865Z,98372.22
2022-09-02T12:48:17.861Z,98371.69
2022-09-02T12:50:50.895Z,98366.41
2022-09-02T12:53:32.451Z,98371.59
2022-09-02T12:56:19.844Z,98365.00
2022-09-02T12:59:01.597Z,98366.50
2022-09-02T13:01:53.995Z,98360.56
2022-09-02T13:04:59.881Z,98369.78
2022-09-02T13:08:12.862Z,98362.09
2022-09-02T13:11:26.344Z,98361.84
2022-09-02T13:14:17.849Z,98349.47
2022-09-02T13:16:53.994Z,98353.16
2022-09-02T13:19:41.881Z,98347.16
2022-09-02T13:22:35.864Z,98353.91
2022-09-02T13:25:49.969Z,98352.63
2022-09-02T13:28:52.000Z,98353.31
2022-09-02T13:31:36.870Z,98350.06
2022-09-02T13:34:08.211Z,98351.00
2022-09-02T13:36:43.878Z,98352.44
2022-09-02T13:39:24.253Z,98359.88
2022-09-02T13:41:57.841Z,98349.25
2022-09-02T13:44:31.769Z,98340.31
2022-09-02T13:47:22.938Z,98341.66
2022-09-02T13:49:52.010Z,98337.63
2022-09-02T13:53:01.149Z,98337.81
2022-09-02T13:55:17.059Z,98340.59
2022-09-02T13:58:05.842Z,98335.66
2022-09-02T14:00:42.959Z,98333.31
2022-09-02T14:03:28.201Z,98335.63
2022-09-02T14:05:57.570Z,98342.41
2022-09-02T14:08:35.838Z,98330.81
2022-09-02T14:11:08.398Z,98330.53
2022-09-02T14:13:42.849Z,98329.69
2022-09-02T14:16:40.956Z,98328.63
2022-09-02T14:19:09.049Z,98331.44
2022-09-02T14:21:44.855Z,98326.50
2022-09-02T14:24:22.842Z,98329.81
2022-09-02T14:26:53.111Z,98320.56
2022-09-02T14:29:27.860Z,98329.25
2022-09-02T14:32:22.855Z,98319.97
2022-09-02T14:35:08.618Z,98321.88
2022-09-02T14:37:58.841Z,98317.81
2022-09-02T14:40:44.842Z,98315.63
2022-09-02T14:43:17.527Z,98316.38
2022-09-02T14:45:56.912Z,98313.41
2022-09-02T14:48:26.998Z,98320.44
2022-09-02T14:51:09.857Z,98321.22
2022-09-02T14:53:37.703Z,98310.63
2022-09-02T14:56:12.890Z,98309.81
2022-09-02T14:58:39.638Z,98311.69
2022-09-02T15:01:14.954Z,98307.59
2022-09-02T15:03:50.848Z,98308.97
2022-09-02T15:06:18.615Z,98306.78
2022-09-02T15:08:51.860Z,98306.28
2022-09-02T15:11:21.229Z,98301.94
2022-09-02T15:13:54.879Z,98303.44
2022-09-02T15:16:27.896Z,98296.94
2022-09-02T15:19:01.869Z,98294.72
2022-09-02T15:21:28.677Z,98297.06
2022-09-02T15:24:01.852Z,98289.59
2022-09-02T15:26:36.838Z,98287.13
2022-09-02T15:29:10.865Z,98293.66
2022-09-02T15:31:43.974Z,98293.63
2022-09-02T15:34:24.858Z,98290.59
2022-09-02T15:36:58.847Z,98282.38
2022-09-02T15:39:26.204Z,98283.09
2022-09-02T15:42:01.848Z,98277.06
2022-09-02T15:44:29.398Z,98285.69
2022-09-02T15:47:03.856Z,98293.19
2022-09-02T15:49:37.062Z,98290.09
2022-09-02T15:52:10.874Z,98290.03
2022-09-02T15:54:37.577Z,98281.47
2022-09-02T15:57:10.836Z,98288.06
2022-09-02T15:59:43.891Z,98290.09
2022-09-02T16:02:10.593Z,98287.47
2022-09-02T16:04:38.507Z,98288.00
2022-09-02T16:07:16.756Z,98288.91
2022-09-02T16:09:50.870Z,98281.84
2022-09-02T16:12:24.832Z,98283.47
2022-09-02T16:14:57.860Z,98283.25
2022-09-02T16:17:24.614Z,98281.34
2022-09-02T16:19:57.937Z,98278.38
2022-09-02T16:22:24.649Z,98285.19
2022-09-02T16:24:57.857Z,98278.94
2022-09-02T16:27:49.840Z,98292.13
2022-09-02T16:30:30.161Z,98284.03
2022-09-02T16:33:11.851Z,98288.44
2022-09-02T16:35:39.295Z,98285.03
2022-09-02T16:38:12.836Z,98288.72
2022-09-02T16:40:39.579Z,98295.75
2022-09-02T16:43:12.846Z,98287.56
2022-09-02T16:45:45.914Z,98287.53
2022-09-02T16:48:21.441Z,98285.00
2022-09-02T16:50:52.300Z,98288.03
2022-09-02T16:53:25.892Z,98289.22
2022-09-02T16:55:52.642Z,98283.56
2022-09-02T16:58:25.864Z,98280.84
2022-09-02T17:00:53.132Z,98281.03
2022-09-02T17:03:26.848Z,98282.88
2022-09-02T17:05:59.851Z,98288.84
2022-09-02T17:08:26.556Z,98284.81
2022-09-02T17:11:18.920Z,98287.50
2022-09-02T17:14:15.241Z,98286.84
2022-09-02T17:16:48.904Z,98286.09
2022-09-02T17:19:32.079Z,98284.38
2022-09-02T17:21:59.509Z,98279.06
2022-09-02T17:24:37.859Z,98281.03
2022-09-02T17:27:04.834Z,98282.31
2022-09-02T17:29:55.234Z,98277.44
2022-09-02T17:32:35.903Z,98273.63
2022-09-02T17:35:08.861Z,98289.25
2022-09-02T17:37:43.868Z,98276.88
2022-09-02T17:40:33.562Z,98281.38
2022-09-02T17:43:06.817Z,98281.44
2022-09-02T17:45:39.898Z,98279.81
2022-09-02T17:48:32.279Z,98278.03
2022-09-02T17:51:00.877Z,98278.91
2022-09-02T17:53:29.507Z,98280.19
2022-09-02T17:56:11.837Z,98277.28
2022-09-02T17:58:50.884Z,98281.69
2022-09-02T18:01:31.062Z,98275.66
2022-09-02T18:04:25.842Z,98268.03
2022-09-02T18:06:58.981Z,98268.06
2022-09-02T18:09:35.277Z,98269.13
2022-09-02T18:12:02.251Z,98279.53
2022-09-02T18:14:57.882Z,98277.72
2022-09-02T18:18:11.843Z,98280.00
2022-09-02T18:20:44.251Z,98275.91
2022-09-02T18:23:42.872Z,98277.59
2022-09-02T18:26:54.871Z,98268.06
2022-09-02T18:29:58.612Z,98276.22
2022-09-02T18:33:26.846Z,98274.16
2022-09-02T18:36:05.910Z,98273.16
2022-09-02T18:39:06.865Z,98282.88
2022-09-02T18:42:18.016Z,98284.38
2022-09-02T18:45:00.043Z,98281.53
2022-09-02T18:47:38.821Z,98288.59
2022-09-02T18:50:07.167Z,98280.31
2022-09-02T18:52:43.060Z,98276.22
2022-09-02T18:55:13.921Z,98288.88
2022-09-02T18:58:04.847Z,98279.97
2022-09-02T19:00:47.950Z,98282.28
2022-09-02T19:03:14.932Z,98284.97
2022-09-02T19:05:48.856Z,98284.56
2022-09-02T19:08:33.027Z,98282.94
2022-09-02T19:11:16.815Z,98288.75
2022-09-02T19:13:57.011Z,98290.00
2022-09-02T19:16:33.175Z,98294.97
2022-09-02T19:19:06.830Z,98287.75
2022-09-02T19:21:48.164Z,98293.75
2022-09-02T19:24:28.873Z,98293.97
2022-09-02T19:27:20.241Z,98294.81
2022-09-02T19:29:57.819Z,98290.91
2022-09-02T19:32:34.074Z,98299.41
2022-09-02T19:35:11.985Z,98302.09
2022-09-02T19:37:44.700Z,98294.44
2022-09-02T19:40:18.881Z,98298.78
2022-09-02T19:42:51.817Z,98293.41
2022-09-02T19:45:18.672Z,98305.19
2022-09-02T19:48:17.004Z,98302.09
2022-09-02T19:50:42.205Z,98306.22
2022-09-02T19:53:34.816Z,98300.22
2022-09-02T19:56:08.031Z,98299.44
2022-09-02T19:58:36.364Z,98301.50
2022-09-02T20:01:13.025Z,98298.41
2022-09-02T20:03:46.836Z,98293.44
2022-09-02T20:06:13.622Z,98294.69
2022-09-02T20:08:46.827Z,98289.31
2022-09-02T20:11:13.782Z,98288.06
2022-09-02T20:13:49.894Z,98295.50
2022-09-02T20:16:22.716Z,98291.59
2022-09-02T20:18:58.902Z,98287.88
2022-09-02T20:21:33.799Z,98289.75
2022-09-02T20:24:14.819Z,98286.84
2022-09-02T20:27:14.123Z,98288.50
2022-09-02T20:29:54.920Z,98285.41
2022-09-02T20:32:49.984Z,98286.03
2022-09-02T20:35:40.814Z,98288.50
2022-09-02T20:38:27.827Z,98283.97
2022-09-02T20:41:35.890Z,98286.03
2022-09-02T20:44:24.083Z,98292.66
2022-09-02T20:47:00.939Z,98283.13
2022-09-02T20:49:36.775Z,98285.41
2022-09-02T20:52:25.903Z,98277.34
2022-09-02T20:55:02.668Z,98276.31
2022-09-02T20:57:56.785Z,98273.00
2022-09-02T21:00:29.861Z,98274.03
2022-09-02T21:03:06.423Z,98272.41
2022-09-02T21:05:43.877Z,98277.56
2022-09-02T21:08:22.288Z,98279.03
2022-09-02T21:11:00.790Z,98266.41
2022-09-02T21:13:40.295Z,98263.09
2022-09-02T21:16:22.853Z,98266.19
2022-09-02T21:19:23.828Z,98266.38
2022-09-02T21:22:10.047Z,98269.91
2022-09-02T21:25:05.862Z,98277.75
2022-09-02T21:27:51.806Z,98275.06
2022-09-02T21:30:22.057Z,98271.16
2022-09-02T21:33:12.837Z,98271.16
2022-09-02T21:35:51.541Z,98268.47
2022-09-02T21:38:51.802Z,98264.13
2022-09-02T21:41:36.647Z,98257.72
2022-09-02T21:44:24.800Z,98253.34
2022-09-02T21:47:34.848Z,98247.16
2022-09-02T21:50:24.863Z,98242.59
2022-09-02T21:53:23.989Z,98242.78
2022-09-02T21:56:05.773Z,98241.97
2022-09-02T21:59:11.809Z,98239.91
2022-09-02T22:02:03.805Z,98241.78
2022-09-02T22:04:47.834Z,98242.16
2022-09-02T22:07:39.805Z,98241.78
2022-09-02T22:10:19.846Z,98245.25
2022-09-02T22:12:57.409Z,98247.16
2022-09-02T22:16:07.393Z,98248.97
2022-09-02T22:19:13.135Z,98247.53
2022-09-02T22:21:49.587Z,98241.13
2022-09-02T22:24:26.813Z,98240.53
2022-09-02T22:26:58.796Z,98239.31
2022-09-02T22:29:42.786Z,98243.81
2022-09-02T22:32:33.868Z,98242.56
2022-09-02T22:35:16.804Z,98244.63
2022-09-02T22:38:34.832Z,98242.56
2022-09-02T22:41:26.407Z,98238.25
2022-09-02T22:44:17.806Z,98237.22
2022-09-02T22:47:08.405Z,98230.59
2022-09-02T22:50:09.815Z,98236.78
2022-09-02T22:52:54.871Z,98238.81
2022-09-02T22:55:44.824Z,98240.69
2022-09-02T22:58:57.795Z,98241.94
2022-09-02T23:02:01.911Z,98246.03
2022-09-02T23:04:46.775Z,98244.38
2022-09-02T23:07:20.788Z,98246.25
2022-09-02T23:09:49.046Z,98253.66
2022-09-02T23:12:47.965Z,98246.00
2022-09-02T23:15:58.627Z,98243.75
2022-09-02T23:19:04.811Z,98239.59
2022-09-02T23:22:05.799Z,98245.38
2022-09-02T23:25:02.936Z,98253.19
2022-09-02T23:27:50.811Z,98259.56
2022-09-02T23:30:18.291Z,98254.19
2022-09-02T23:33:37.773Z,98257.44
2022-09-02T23:36:27.769Z,98254.75
2022-09-02T23:39:13.782Z,98256.78
2022-09-02T23:41:51.786Z,98260.03
2022-09-02T23:44:18.431Z,98262.28
2022-09-02T23:47:22.770Z,98261.66
2022-09-02T23:50:23.796Z,98262.88
2022-09-02T23:53:06.796Z,98266.56
2022-09-02T23:56:09.772Z,98261.31
2022-09-02T23:59:18.758Z,98247.72
